»·PEaware :: N951TA KLAX-KSAN

N951TA :: KLAX-KSAN

FLIGHT INFORMATION

Flight Status: Arrived
Operator: Privately registered:
United States
More flights under this callsign
Pilot: John H. (7647)
Aircraft: CESSNA 172 SKYHAWK
(C172)
More flights by this aircraft type
Origin: KLAX Los Angeles Intl
United States
Destination: KSAN San Diego Intl-Lindbergh
United States
More flights between these airports :: More routes between these airports
Route: VFR CORRIDOR TO SAN DIEGO
File this flight plan on PilotEdge
Remarks: PRACTICE / / CAT-11 / / PRACTICE
Altitude:
(Current/Filed)
5,500ft
Speed:
(Current/Filed)
120kts
Departed: 02-Aug-18 04:23 AM
Arrived: 02-Aug-18 05:28 AM
Distance/Time
Traveled:
95nm/1:05
Distance/Time
To Go:
Arrived

Flight Plot

Page will automatically refresh every two minutes.

Flight plan parsing failed; only flown route is shown


Map Options




Map Legend


Flown Route
Filed Route
Departure Airport
Arrival Airport
Navaid (VOR, NDB)
Fix

Horizontal Profiles

Position Reports

Time Latitude Longitude Heading Altitude Ground
Speed
02-Aug-18 04:15 33.933884 -118.395128 92 108ft 0kts
02-Aug-18 04:16 33.933884 -118.395128 91 108ft 0kts
02-Aug-18 04:17 33.933884 -118.395128 91 108ft 0kts
02-Aug-18 04:18 33.933884 -118.395128 91 108ft 0kts
02-Aug-18 04:19 33.933884 -118.395128 91 108ft 0kts
02-Aug-18 04:20 33.935026 -118.393409 80 105ft 15kts
02-Aug-18 04:21 33.935789 -118.386155 81 99ft 26kts
02-Aug-18 04:22 33.937025 -118.382911 337 98ft 12kts
02-Aug-18 04:23 33.937231 -118.383917 261 98ft 21kts
02-Aug-18 04:24 33.934597 -118.406232 256 760ft 77kts
02-Aug-18 04:25 33.931438 -118.432518 262 1557ft 80kts
02-Aug-18 04:26 33.925420 -118.461066 215 1913ft 109kts
02-Aug-18 04:27 33.894148 -118.458503 158 1910ft 119kts
02-Aug-18 04:28 33.870076 -118.431605 137 1906ft 118kts
02-Aug-18 04:29 33.848255 -118.406397 137 2391ft 98kts
02-Aug-18 04:30 33.831119 -118.385517 113 3119ft 90kts
02-Aug-18 04:31 33.825469 -118.358253 103 3891ft 85kts
02-Aug-18 04:32 33.820063 -118.331256 104 4417ft 103kts
02-Aug-18 04:33 33.812545 -118.294593 104 4408ft 118kts
02-Aug-18 04:34 33.804957 -118.257755 104 4405ft 119kts
02-Aug-18 04:35 33.796170 -118.219388 117 4389ft 123kts
02-Aug-18 04:36 33.776118 -118.186942 130 4381ft 123kts
02-Aug-18 04:37 33.757389 -118.161407 130 4998ft 81kts
02-Aug-18 04:38 33.742934 -118.141978 131 5393ft 94kts
02-Aug-18 04:39 33.722868 -118.115311 131 5384ft 118kts
02-Aug-18 04:40 33.700202 -118.085168 131 5377ft 118kts
02-Aug-18 04:41 33.679157 -118.057184 131 5379ft 110kts
02-Aug-18 04:42 33.658312 -118.030664 133 5380ft 109kts
02-Aug-18 04:43 33.637403 -118.004373 133 5380ft 109kts
02-Aug-18 04:44 33.616619 -117.978349 133 5379ft 109kts
02-Aug-18 04:45 33.594971 -117.951569 133 5380ft 113kts
02-Aug-18 04:46 33.572916 -117.924085 133 5380ft 115kts
02-Aug-18 04:47 33.550827 -117.896448 133 5382ft 116kts
02-Aug-18 04:48 33.528322 -117.868284 133 5385ft 117kts
02-Aug-18 04:49 33.505920 -117.840247 133 5380ft 117kts
02-Aug-18 04:50 33.484487 -117.813452 133 5380ft 117kts
02-Aug-18 04:51 33.462209 -117.785620 133 5381ft 117kts
02-Aug-18 04:52 33.439646 -117.757452 133 5378ft 117kts
02-Aug-18 04:53 33.417034 -117.729251 133 5379ft 116kts
02-Aug-18 04:54 33.394672 -117.701437 131 5399ft 115kts
02-Aug-18 04:55 33.372907 -117.674283 131 5516ft 111kts
02-Aug-18 04:56 33.350991 -117.646980 132 5517ft 115kts
02-Aug-18 04:57 33.329679 -117.620480 131 5516ft 116kts
02-Aug-18 04:58 33.307429 -117.592838 131 5519ft 116kts
02-Aug-18 04:59 33.284924 -117.564889 131 5516ft 116kts
02-Aug-18 05:00 33.262705 -117.537305 131 5517ft 115kts
02-Aug-18 05:01 33.241503 -117.511002 131 5518ft 116kts
02-Aug-18 05:02 33.219258 -117.483414 131 5516ft 115kts
02-Aug-18 05:03 33.197097 -117.456010 137 5514ft 113kts
02-Aug-18 05:04 33.169716 -117.439675 153 5518ft 110kts
02-Aug-18 05:05 33.143474 -117.424753 154 5244ft 122kts
02-Aug-18 05:06 33.112611 -117.407703 154 4471ft 129kts
02-Aug-18 05:07 33.082111 -117.390914 154 3701ft 126kts
02-Aug-18 05:08 33.053552 -117.375177 154 3518ft 107kts
02-Aug-18 05:09 33.026771 -117.360440 154 3517ft 111kts
02-Aug-18 05:10 32.999977 -117.345722 154 3517ft 112kts
02-Aug-18 05:11 32.972311 -117.330539 155 3517ft 112kts
02-Aug-18 05:12 32.943926 -117.314960 155 3521ft 113kts
02-Aug-18 05:13 32.915451 -117.299129 153 3515ft 113kts
02-Aug-18 05:14 32.887766 -117.282482 151 3516ft 112kts
02-Aug-18 05:15 32.859847 -117.265736 152 3516ft 112kts
02-Aug-18 05:16 32.837716 -117.252454 152 3516ft 112kts
02-Aug-18 05:17 32.809901 -117.235753 152 3517ft 112kts
02-Aug-18 05:18 32.783216 -117.216943 113 2748ft 112kts
02-Aug-18 05:19 32.773819 -117.182914 105 1745ft 108kts
02-Aug-18 05:20 32.766556 -117.156193 107 1508ft 65kts
02-Aug-18 05:21 32.758864 -117.135213 181 1527ft 79kts
02-Aug-18 05:22 32.738082 -117.143197 197 1135ft 79kts
02-Aug-18 05:23 32.732724 -117.145286 202 932ft 79kts
02-Aug-18 05:24 32.732724 -117.145286 202 932ft 79kts
02-Aug-18 05:25 32.732724 -117.145286 202 932ft 79kts
02-Aug-18 05:26 32.732724 -117.145286 202 932ft 79kts
02-Aug-18 05:27 32.726227 -117.158034 276 616ft 65kts
02-Aug-18 05:28 32.730321 -117.176414 288 143ft 73kts
02-Aug-18 05:29 32.732589 -117.188583 241 16ft 8kts
02-Aug-18 05:30 32.732265 -117.190945 277 16ft 9kts
02-Aug-18 05:31 32.731868 -117.191696 121 16ft 0kts
02-Aug-18 05:32 32.731868 -117.191696 121 16ft 0kts
02-Aug-18 05:33 32.731868 -117.191696 121 16ft 0kts
02-Aug-18 05:34 32.731868 -117.191696 121 16ft 0kts

Navigation Log

Ident Type
Flight plan parsing failed, navigation log unavailable